createdAt,value
2019-05-02T00:01:47.415Z,48.30
2019-05-02T00:03:52.592Z,49.33
2019-05-02T00:05:58.141Z,50.53
2019-05-02T00:08:03.520Z,46.13
2019-05-02T00:10:10.743Z,46.27
2019-05-02T00:12:18.606Z,47.30
2019-05-02T00:14:24.694Z,45.07
2019-05-02T00:16:30.602Z,51.07
2019-05-02T00:18:39.086Z,48.17
2019-05-02T00:20:44.713Z,46.93
2019-05-02T00:22:52.175Z,46.50
2019-05-02T00:24:57.414Z,47.47
2019-05-02T00:27:03.201Z,47.23
2019-05-02T00:29:08.407Z,47.80
2019-05-02T00:31:13.519Z,50.00
2019-05-02T00:33:18.951Z,47.40
2019-05-02T00:35:24.421Z,44.67
2019-05-02T00:37:29.773Z,46.23
2019-05-02T00:39:35.201Z,45.57
2019-05-02T00:41:40.684Z,47.90
2019-05-02T00:43:45.889Z,45.93
2019-05-02T00:45:55.025Z,48.53
2019-05-02T00:48:04.129Z,43.37
2019-05-02T00:50:11.334Z,44.57
2019-05-02T00:52:17.397Z,46.37
2019-05-02T00:54:24.270Z,45.80
2019-05-02T00:56:29.759Z,48.57
2019-05-02T00:58:35.438Z,45.60
2019-05-02T01:01:00.402Z,46.47
2019-05-02T01:03:11.133Z,49.90
2019-05-02T01:05:20.352Z,47.00
2019-05-02T01:07:26.986Z,45.73
2019-05-02T01:09:35.205Z,50.13
2019-05-02T01:11:40.699Z,47.43
2019-05-02T01:13:50.391Z,48.40
2019-05-02T01:15:53.071Z,48.27
2019-05-02T01:18:01.032Z,49.70
2019-05-02T01:20:06.253Z,50.10
2019-05-02T01:22:15.925Z,47.23
2019-05-02T01:24:18.576Z,48.87
2019-05-02T01:26:29.300Z,45.93
2019-05-02T01:29:06.669Z,48.40
2019-05-02T01:31:20.291Z,47.20
2019-05-02T01:33:36.916Z,45.33
2019-05-02T01:35:47.748Z,45.97
2019-05-02T01:38:10.177Z,45.37
2019-05-02T01:40:17.811Z,47.23
2019-05-02T01:42:22.642Z,45.33
2019-05-02T01:44:31.032Z,46.50
2019-05-02T01:46:36.097Z,46.20
2019-05-02T01:48:45.591Z,50.17
2019-05-02T01:50:48.596Z,43.07
2019-05-02T01:52:58.411Z,47.10
2019-05-02T01:55:00.520Z,47.93
2019-05-02T01:57:08.691Z,48.40
2019-05-02T01:59:13.506Z,48.30
2019-05-02T02:01:23.201Z,47.10
2019-05-02T02:03:28.267Z,44.00
2019-05-02T02:05:33.807Z,46.10
2019-05-02T02:07:38.984Z,48.47
2019-05-02T02:09:45.790Z,46.93
2019-05-02T02:11:51.055Z,47.20
2019-05-02T02:13:56.185Z,45.83
2019-05-02T02:16:04.538Z,50.77
2019-05-02T02:18:08.254Z,48.70
2019-05-02T02:20:15.739Z,49.37
2019-05-02T02:22:51.897Z,43.53
2019-05-02T02:25:32.155Z,46.53
2019-05-02T02:27:36.154Z,45.53
2019-05-02T02:29:43.984Z,48.53
2019-05-02T02:31:49.294Z,46.23
2019-05-02T02:33:54.764Z,43.53
2019-05-02T02:36:00.161Z,46.10
2019-05-02T02:38:05.474Z,46.37
2019-05-02T02:40:10.993Z,47.27
2019-05-02T02:42:16.105Z,46.83
2019-05-02T02:44:39.912Z,46.73
2019-05-02T02:46:46.042Z,49.97
2019-05-02T02:48:51.211Z,49.07
2019-05-02T02:50:56.935Z,47.70
2019-05-02T02:53:02.125Z,50.47
2019-05-02T02:55:07.477Z,47.77
2019-05-02T02:57:20.878Z,48.90
2019-05-02T02:59:26.223Z,47.60
2019-05-02T03:01:29.450Z,47.03
2019-05-02T03:03:35.257Z,48.73
2019-05-02T03:05:40.885Z,50.57
2019-05-02T03:07:46.647Z,51.03
2019-05-02T03:09:51.826Z,45.57
2019-05-02T03:12:15.265Z,48.30
2019-05-02T03:14:25.372Z,48.83
2019-05-02T03:16:31.625Z,47.33
2019-05-02T03:18:40.528Z,49.27
2019-05-02T03:20:44.058Z,49.03
2019-05-02T03:22:49.478Z,50.47
2019-05-02T03:24:55.028Z,52.73
2019-05-02T03:27:00.851Z,48.73
2019-05-02T03:29:06.132Z,48.63
2019-05-02T03:31:24.402Z,51.33
2019-05-02T03:33:19.085Z,50.90
2019-05-02T03:35:40.842Z,47.60
2019-05-02T03:37:31.770Z,50.43
2019-05-02T03:39:38.557Z,45.30
2019-05-02T03:41:44.287Z,51.57
2019-05-02T03:43:50.419Z,49.40
2019-05-02T03:45:55.793Z,48.23
2019-05-02T03:48:02.394Z,48.73
2019-05-02T03:50:09.389Z,49.47
2019-05-02T03:52:15.387Z,47.07
2019-05-02T03:54:20.774Z,46.13
2019-05-02T03:56:26.572Z,50.20
2019-05-02T03:58:32.913Z,44.80
2019-05-02T04:00:38.015Z,46.47
2019-05-02T04:02:44.132Z,46.17
2019-05-02T04:04:54.084Z,45.97
2019-05-02T04:07:01.175Z,49.00
2019-05-02T04:09:08.219Z,45.83
2019-05-02T04:11:38.348Z,43.83
2019-05-02T04:13:38.195Z,43.97
2019-05-02T04:15:43.489Z,46.67
2019-05-02T04:17:49.157Z,47.03
2019-05-02T04:19:54.362Z,50.97
2019-05-02T04:22:01.640Z,54.30
2019-05-02T04:24:13.337Z,68.10
2019-05-02T04:26:16.887Z,53.00
2019-05-02T04:28:24.366Z,54.93
2019-05-02T04:30:29.805Z,46.73
2019-05-02T04:32:35.294Z,54.63
2019-05-02T04:34:40.457Z,55.47
2019-05-02T04:36:46.828Z,56.60
2019-05-02T04:38:52.979Z,55.03
2019-05-02T04:40:59.161Z,48.67
2019-05-02T04:43:08.229Z,50.07
2019-05-02T04:45:25.241Z,47.67
2019-05-02T04:47:21.936Z,52.20
2019-05-02T04:49:29.777Z,51.57
2019-05-02T04:51:33.783Z,50.77
2019-05-02T04:53:44.331Z,53.70
2019-05-02T04:55:52.488Z,52.93
2019-05-02T04:57:52.952Z,58.87
2019-05-02T05:00:06.386Z,59.70
2019-05-02T05:02:08.713Z,53.70
2019-05-02T05:04:13.039Z,57.50
2019-05-02T05:06:19.016Z,61.83
2019-05-02T05:08:26.512Z,59.57
2019-05-02T05:10:40.165Z,55.00
2019-05-02T05:12:41.810Z,58.80
2019-05-02T05:14:47.462Z,63.03
2019-05-02T05:16:55.616Z,63.63
2019-05-02T05:19:00.099Z,59.93
2019-05-02T05:21:10.315Z,68.47
2019-05-02T05:23:18.227Z,65.33
2019-05-02T05:25:27.867Z,68.37
2019-05-02T05:27:32.879Z,67.17
2019-05-02T05:29:38.069Z,65.03
2019-05-02T05:31:43.198Z,70.03
2019-05-02T05:33:49.017Z,73.30
2019-05-02T05:35:54.505Z,70.30
2019-05-02T05:37:59.942Z,72.67
2019-05-02T05:40:05.496Z,71.37
2019-05-02T05:42:10.848Z,71.00
2019-05-02T05:44:18.072Z,70.97
2019-05-02T05:46:23.302Z,75.53
2019-05-02T05:48:32.138Z,75.30
2019-05-02T05:50:37.684Z,67.67
2019-05-02T05:52:43.110Z,70.47
2019-05-02T05:54:48.182Z,68.30
2019-05-02T05:56:53.285Z,66.17
2019-05-02T05:58:59.231Z,69.63
2019-05-02T06:01:09.312Z,67.67
2019-05-02T06:03:14.165Z,68.50
2019-05-02T06:05:18.337Z,70.77
2019-05-02T06:07:23.902Z,66.47
2019-05-02T06:09:31.256Z,68.27
2019-05-02T06:11:36.911Z,67.47
2019-05-02T06:13:48.610Z,67.00
2019-05-02T06:16:01.675Z,65.30
2019-05-02T06:17:59.972Z,67.40
2019-05-02T06:20:04.586Z,65.20
2019-05-02T06:22:09.810Z,68.53
2019-05-02T06:24:17.078Z,63.53
2019-05-02T06:26:22.190Z,63.93
2019-05-02T06:28:27.797Z,64.77
2019-05-02T06:30:33.023Z,60.10
2019-05-02T06:32:38.087Z,59.70
2019-05-02T06:34:46.507Z,60.33
2019-05-02T06:36:50.447Z,58.07
2019-05-02T06:38:56.614Z,58.83
2019-05-02T06:41:02.493Z,55.87
2019-05-02T06:43:09.872Z,56.13
2019-05-02T06:45:15.370Z,47.77
2019-05-02T06:47:20.952Z,50.13
2019-05-02T06:49:26.157Z,49.77
2019-05-02T06:51:31.345Z,46.47
2019-05-02T06:53:41.448Z,45.73
2019-05-02T06:55:44.061Z,42.80
2019-05-02T06:57:51.736Z,41.90
2019-05-02T06:59:56.571Z,41.17
2019-05-02T07:02:01.993Z,41.17
2019-05-02T07:04:07.192Z,41.17
2019-05-02T07:06:12.401Z,41.87
2019-05-02T07:08:17.947Z,43.53
2019-05-02T07:10:25.433Z,44.10
2019-05-02T07:12:30.491Z,41.73
2019-05-02T07:14:36.534Z,46.33
2019-05-02T07:16:54.569Z,44.93
2019-05-02T07:19:03.905Z,45.90
2019-05-02T07:21:12.224Z,49.70
2019-05-02T07:23:18.319Z,44.93
2019-05-02T07:25:23.539Z,49.20
2019-05-02T07:27:33.619Z,46.70
2019-05-02T07:29:35.615Z,47.00
2019-05-02T07:31:42.994Z,46.37
2019-05-02T07:33:48.005Z,50.60
2019-05-02T07:35:55.257Z,47.03
2019-05-02T07:38:01.054Z,47.23
2019-05-02T07:40:07.697Z,48.77
2019-05-02T07:42:14.895Z,48.07
2019-05-02T07:44:20.375Z,46.13
2019-05-02T07:46:25.561Z,45.77
2019-05-02T07:48:31.375Z,44.37
2019-05-02T07:50:36.571Z,43.40
2019-05-02T07:52:42.118Z,44.30
2019-05-02T07:54:47.249Z,42.63
2019-05-02T07:56:53.466Z,42.93
2019-05-02T07:58:59.190Z,44.77
2019-05-02T08:01:08.176Z,43.20
2019-05-02T08:03:12.287Z,43.87
2019-05-02T08:05:21.513Z,42.73
2019-05-02T08:07:29.970Z,43.50
2019-05-02T08:09:32.608Z,42.43
2019-05-02T08:11:38.557Z,41.87
2019-05-02T08:13:44.439Z,43.47
2019-05-02T08:15:50.783Z,42.60
2019-05-02T08:17:56.563Z,46.37
2019-05-02T08:20:04.764Z,43.83
2019-05-02T08:22:13.298Z,43.50
2019-05-02T08:24:16.188Z,43.43
2019-05-02T08:26:23.380Z,44.03
2019-05-02T08:28:33.584Z,46.83
2019-05-02T08:30:42.181Z,45.03
2019-05-02T08:32:47.295Z,43.60
2019-05-02T08:34:53.519Z,43.73
2019-05-02T08:37:03.018Z,43.17
2019-05-02T08:39:07.412Z,44.67
2019-05-02T08:41:12.532Z,43.07
2019-05-02T08:43:17.650Z,41.40
2019-05-02T08:45:22.836Z,37.83
2019-05-02T08:47:30.225Z,43.50
2019-05-02T08:49:35.541Z,36.90
2019-05-02T08:51:41.599Z,39.63
2019-05-02T08:53:47.046Z,40.03
2019-05-02T08:55:52.252Z,37.47
2019-05-02T08:57:57.753Z,38.57
2019-05-02T09:00:02.953Z,36.27
2019-05-02T09:02:08.151Z,35.07
2019-05-02T09:04:13.962Z,37.73
2019-05-02T09:06:22.485Z,35.20
2019-05-02T09:08:27.340Z,36.60
2019-05-02T09:10:32.453Z,34.17
2019-05-02T09:12:42.307Z,35.60
2019-05-02T09:14:44.848Z,34.20
2019-05-02T09:16:52.377Z,36.53
2019-05-02T09:18:58.079Z,36.73
2019-05-02T09:21:03.288Z,34.73
2019-05-02T09:23:08.951Z,36.47
2019-05-02T09:25:15.232Z,34.93
2019-05-02T09:27:22.485Z,33.23
2019-05-02T09:29:27.733Z,35.33
2019-05-02T09:31:36.807Z,36.17
2019-05-02T09:33:42.442Z,34.20
2019-05-02T09:35:47.591Z,34.80
2019-05-02T09:37:54.321Z,36.93
2019-05-02T09:39:59.513Z,42.10
2019-05-02T09:42:06.605Z,39.33
2019-05-02T09:44:14.611Z,38.77
2019-05-02T09:46:19.596Z,42.57
2019-05-02T09:48:26.765Z,42.37
2019-05-02T09:50:34.360Z,43.00
2019-05-02T09:52:40.810Z,42.83
2019-05-02T09:54:46.210Z,44.53
2019-05-02T09:56:52.386Z,41.70
2019-05-02T09:59:04.825Z,43.20
2019-05-02T10:01:13.824Z,38.80
2019-05-02T10:03:19.244Z,38.77
2019-05-02T10:05:24.756Z,41.47
2019-05-02T10:07:29.912Z,44.80
2019-05-02T10:09:35.572Z,37.73
2019-05-02T10:11:41.791Z,41.33
2019-05-02T10:13:47.196Z,38.30
2019-05-02T10:15:52.886Z,41.40
2019-05-02T10:18:08.718Z,41.67
2019-05-02T10:20:06.247Z,37.83
2019-05-02T10:22:12.287Z,39.63
2019-05-02T10:24:17.787Z,41.20
2019-05-02T10:26:24.584Z,40.10
2019-05-02T10:28:31.706Z,37.80
2019-05-02T10:30:37.499Z,37.27
2019-05-02T10:32:47.187Z,37.23
2019-05-02T10:34:55.096Z,37.97
2019-05-02T10:36:58.925Z,38.50
2019-05-02T10:39:07.381Z,37.03
2019-05-02T10:41:12.736Z,37.70
2019-05-02T10:43:17.930Z,34.53
2019-05-02T10:45:23.150Z,37.20
2019-05-02T10:47:28.262Z,32.10
2019-05-02T10:49:53.772Z,35.73
2019-05-02T10:51:58.975Z,31.47
2019-05-02T10:54:08.009Z,31.77
2019-05-02T10:56:13.107Z,30.37
2019-05-02T10:58:18.568Z,30.97
2019-05-02T11:00:32.365Z,31.60
2019-05-02T11:02:55.291Z,31.70
2019-05-02T11:05:05.101Z,33.00
2019-05-02T11:07:11.970Z,31.57
2019-05-02T11:09:22.522Z,34.23
2019-05-02T11:11:24.285Z,28.83
2019-05-02T11:13:45.856Z,32.83
2019-05-02T11:16:13.123Z,30.33
2019-05-02T11:18:38.784Z,27.60
2019-05-02T11:20:29.500Z,32.37
2019-05-02T11:22:35.029Z,28.83
2019-05-02T11:24:41.778Z,27.13
2019-05-02T11:26:47.504Z,26.43
2019-05-02T11:28:53.078Z,28.60
2019-05-02T11:31:02.654Z,28.80
2019-05-02T11:33:05.333Z,28.73
2019-05-02T11:35:12.195Z,27.50
2019-05-02T11:37:18.265Z,26.73
2019-05-02T11:39:31.093Z,26.07
2019-05-02T11:41:31.726Z,26.57
2019-05-02T11:43:42.448Z,29.30
2019-05-02T11:45:45.683Z,29.23
2019-05-02T11:47:54.436Z,26.57
2019-05-02T11:49:58.382Z,26.80
2019-05-02T11:52:04.704Z,27.97
2019-05-02T11:54:10.233Z,26.20
2019-05-02T11:56:15.743Z,30.47
2019-05-02T11:58:23.004Z,30.33
2019-05-02T12:00:28.447Z,26.90
2019-05-02T12:02:58.146Z,27.33
2019-05-02T12:05:02.511Z,25.40
2019-05-02T12:07:08.371Z,25.03
2019-05-02T12:09:14.156Z,26.20
2019-05-02T12:11:19.495Z,27.10
2019-05-02T12:13:24.979Z,27.47
2019-05-02T12:15:32.307Z,25.30
2019-05-02T12:17:37.602Z,29.57
2019-05-02T12:19:43.046Z,26.60
2019-05-02T12:21:55.866Z,27.90
2019-05-02T12:24:02.253Z,29.37
2019-05-02T12:26:07.964Z,28.93
2019-05-02T12:28:13.298Z,29.03
2019-05-02T12:30:18.511Z,26.87
2019-05-02T12:32:23.955Z,30.30
2019-05-02T12:34:29.222Z,25.90
2019-05-02T12:36:34.400Z,26.37
2019-05-02T12:38:39.588Z,25.67
2019-05-02T12:40:44.723Z,25.37
2019-05-02T12:42:52.461Z,27.33
2019-05-02T12:44:57.189Z,25.93
2019-05-02T12:47:02.742Z,27.77
2019-05-02T12:49:21.819Z,26.07
2019-05-02T12:51:15.827Z,26.00
2019-05-02T12:53:21.928Z,29.23
2019-05-02T12:55:27.594Z,26.43
2019-05-02T12:57:32.734Z,26.03
2019-05-02T12:59:37.856Z,24.63
2019-05-02T13:01:43.474Z,23.77
2019-05-02T13:03:54.932Z,29.23
2019-05-02T13:06:00.116Z,26.40
2019-05-02T13:08:05.334Z,28.47
2019-05-02T13:10:12.546Z,26.70
2019-05-02T13:12:23.435Z,22.67
2019-05-02T13:14:31.901Z,29.57
2019-05-02T13:16:37.355Z,24.53
2019-05-02T13:18:42.536Z,25.53
2019-05-02T13:20:48.959Z,24.03
2019-05-02T13:23:10.503Z,23.97
2019-05-02T13:25:17.965Z,23.67
2019-05-02T13:27:23.504Z,23.50
2019-05-02T13:29:28.827Z,23.13
2019-05-02T13:31:52.362Z,26.37
2019-05-02T13:34:06.601Z,23.43
2019-05-02T13:36:42.971Z,22.03
2019-05-02T13:38:48.089Z,21.40
2019-05-02T13:40:53.584Z,24.17
2019-05-02T13:42:59.094Z,27.27
2019-05-02T13:45:12.613Z,23.83
2019-05-02T13:47:21.855Z,25.23
2019-05-02T13:49:27.065Z,24.93
2019-05-02T13:51:32.575Z,24.87
2019-05-02T13:53:43.288Z,22.77
2019-05-02T13:55:54.705Z,22.47
2019-05-02T13:58:02.153Z,21.50
2019-05-02T14:00:08.277Z,25.13
2019-05-02T14:02:38.556Z,28.23
2019-05-02T14:04:43.768Z,22.03
2019-05-02T14:06:49.222Z,24.60
2019-05-02T14:08:59.880Z,23.83
2019-05-02T14:11:23.053Z,23.03
2019-05-02T14:13:29.004Z,23.37
2019-05-02T14:15:38.000Z,26.23
2019-05-02T14:17:43.478Z,23.23
2019-05-02T14:19:48.661Z,20.63
2019-05-02T14:21:54.138Z,22.07
2019-05-02T14:24:01.588Z,19.20
2019-05-02T14:26:08.240Z,19.67
2019-05-02T14:28:13.471Z,21.03
2019-05-02T14:30:35.712Z,18.97
2019-05-02T14:32:27.505Z,20.63
2019-05-02T14:34:48.585Z,18.00
2019-05-02T14:36:58.924Z,19.37
2019-05-02T14:39:02.284Z,21.70
2019-05-02T14:41:12.980Z,20.60
2019-05-02T14:43:38.099Z,19.63
2019-05-02T14:45:44.350Z,18.03
2019-05-02T14:47:57.577Z,18.77
2019-05-02T14:50:02.280Z,19.27
2019-05-02T14:52:07.029Z,20.27
2019-05-02T14:54:12.146Z,19.90
2019-05-02T14:56:22.942Z,23.97
2019-05-02T14:58:28.006Z,22.80
2019-05-02T15:00:39.520Z,22.63
2019-05-02T15:02:49.035Z,20.93
2019-05-02T15:04:52.271Z,20.53
2019-05-02T15:06:57.665Z,21.00
2019-05-02T15:09:03.750Z,23.13
2019-05-02T15:11:09.313Z,24.80
2019-05-02T15:13:14.667Z,22.23
2019-05-02T15:15:20.235Z,22.40
2019-05-02T15:17:28.108Z,22.47
2019-05-02T15:19:33.070Z,24.60
2019-05-02T15:21:46.947Z,22.93
2019-05-02T15:23:54.457Z,24.20
2019-05-02T15:25:58.379Z,24.80
2019-05-02T15:28:04.260Z,24.80
2019-05-02T15:30:10.649Z,23.93
2019-05-02T15:32:25.581Z,23.50
2019-05-02T15:34:48.287Z,24.03
2019-05-02T15:36:53.469Z,23.10
2019-05-02T15:41:09.527Z,25.07
2019-05-02T15:43:12.657Z,27.43
2019-05-02T15:45:20.341Z,27.87
2019-05-02T15:47:25.436Z,25.73
2019-05-02T15:49:36.547Z,25.13
2019-05-02T15:51:43.720Z,28.73
2019-05-02T15:54:08.465Z,27.70
2019-05-02T15:56:19.433Z,26.90
2019-05-02T15:58:26.056Z,25.57
2019-05-02T16:00:32.107Z,25.20
2019-05-02T16:02:42.107Z,26.67
2019-05-02T16:04:47.307Z,27.57
2019-05-02T16:06:52.948Z,25.07
2019-05-02T16:08:58.829Z,23.87
2019-05-02T16:11:08.871Z,24.90
2019-05-02T16:13:16.875Z,24.53
2019-05-02T16:15:22.215Z,25.63
2019-05-02T16:17:29.244Z,24.73
2019-05-02T16:19:38.600Z,25.90
2019-05-02T16:21:52.034Z,25.10
2019-05-02T16:24:15.331Z,25.53
2019-05-02T16:26:22.547Z,27.40
2019-05-02T16:28:28.020Z,27.33
2019-05-02T16:30:36.928Z,28.30
2019-05-02T16:32:44.261Z,29.33
2019-05-02T16:34:55.139Z,27.77
2019-05-02T16:37:13.497Z,26.13
2019-05-02T16:39:17.401Z,26.10
2019-05-02T16:41:23.203Z,28.00
2019-05-02T16:43:29.968Z,28.50
2019-05-02T16:45:35.602Z,30.17
2019-05-02T16:47:42.276Z,29.40
2019-05-02T16:49:53.347Z,29.57
2019-05-02T16:51:57.467Z,29.50
2019-05-02T16:54:05.058Z,29.07
2019-05-02T16:56:11.477Z,29.90
2019-05-02T16:58:16.823Z,32.80
2019-05-02T17:00:25.081Z,31.93
2019-05-02T17:02:32.277Z,34.47
2019-05-02T17:04:37.361Z,34.80
2019-05-02T17:06:42.858Z,36.43
2019-05-02T17:08:58.672Z,37.50
2019-05-02T17:11:15.371Z,36.97
2019-05-02T17:13:18.457Z,39.37
2019-05-02T17:15:31.451Z,32.13
2019-05-02T17:17:34.964Z,24.23
2019-05-02T17:19:40.434Z,27.87
2019-05-02T17:21:55.954Z,25.63
2019-05-02T17:23:54.343Z,13.70
2019-05-02T17:26:01.553Z,14.73
2019-05-02T17:28:10.569Z,14.07
2019-05-02T17:30:15.126Z,11.70
2019-05-02T17:32:20.255Z,10.93
2019-05-02T17:34:30.700Z,10.37
2019-05-02T17:36:33.081Z,9.67
2019-05-02T17:38:38.563Z,10.40
2019-05-02T17:40:44.359Z,9.57
2019-05-02T17:42:49.551Z,9.57
2019-05-02T17:44:59.327Z,9.37
2019-05-02T17:47:01.968Z,8.63
2019-05-02T17:49:07.732Z,10.60
2019-05-02T17:51:33.885Z,8.90
2019-05-02T17:53:41.214Z,8.63
2019-05-02T17:55:44.861Z,7.47
2019-05-02T17:57:51.609Z,8.00
2019-05-02T17:59:57.274Z,9.00
2019-05-02T18:02:06.553Z,6.77
2019-05-02T18:04:12.634Z,7.00
2019-05-02T18:06:17.387Z,7.03
2019-05-02T18:08:23.012Z,6.10
2019-05-02T18:10:28.520Z,6.13
2019-05-02T18:12:33.646Z,7.73
2019-05-02T18:14:39.143Z,8.40
2019-05-02T18:16:47.237Z,6.30
2019-05-02T18:18:52.248Z,8.13
2019-05-02T18:20:57.446Z,7.03
2019-05-02T18:23:05.752Z,7.00
2019-05-02T18:25:11.657Z,6.33
2019-05-02T18:27:16.707Z,6.80
2019-05-02T18:29:22.523Z,7.00
2019-05-02T18:31:27.968Z,8.30
2019-05-02T18:33:36.051Z,6.97
2019-05-02T18:35:45.193Z,8.53
2019-05-02T18:37:47.713Z,6.80
2019-05-02T18:39:55.935Z,7.57
2019-05-02T18:42:00.481Z,8.10
2019-05-02T18:44:05.778Z,6.73
2019-05-02T18:46:12.758Z,7.50
2019-05-02T18:48:18.461Z,7.93
2019-05-02T18:50:44.286Z,8.03
2019-05-02T18:52:48.089Z,7.83
2019-05-02T18:54:54.297Z,9.57
2019-05-02T18:56:59.870Z,8.13
2019-05-02T18:59:05.085Z,9.00
2019-05-02T19:01:14.012Z,9.83
2019-05-02T19:03:17.505Z,9.77
2019-05-02T19:05:22.993Z,8.47
2019-05-02T19:07:33.050Z,8.27
2019-05-02T19:09:34.888Z,9.63
2019-05-02T19:11:40.352Z,8.83
2019-05-02T19:13:46.094Z,8.93
2019-05-02T19:15:53.419Z,10.33
2019-05-02T19:17:58.788Z,9.17
2019-05-02T19:20:06.236Z,9.60
2019-05-02T19:22:13.186Z,9.60
2019-05-02T19:24:18.400Z,10.87
2019-05-02T19:26:23.847Z,10.50
2019-05-02T19:28:38.489Z,10.87
2019-05-02T19:30:44.123Z,10.63
2019-05-02T19:32:49.587Z,11.57
2019-05-02T19:34:57.757Z,11.50
2019-05-02T19:37:03.113Z,12.07
2019-05-02T19:39:10.593Z,10.93
2019-05-02T19:41:16.145Z,12.53
2019-05-02T19:43:23.083Z,12.53
2019-05-02T19:45:28.643Z,13.10
2019-05-02T19:47:33.709Z,11.93
2019-05-02T19:49:38.907Z,13.20
2019-05-02T19:51:45.076Z,15.10
2019-05-02T19:53:53.406Z,13.23
2019-05-02T19:56:01.257Z,12.83
2019-05-02T19:58:06.460Z,13.57
2019-05-02T20:00:12.193Z,12.17
2019-05-02T20:02:17.793Z,13.33
2019-05-02T20:04:23.562Z,12.63
2019-05-02T20:06:28.738Z,12.67
2019-05-02T20:08:34.356Z,14.67
2019-05-02T20:10:39.593Z,12.33
2019-05-02T20:12:48.378Z,12.70
2019-05-02T20:14:52.080Z,12.13
2019-05-02T20:17:02.078Z,11.90
2019-05-02T20:19:07.318Z,13.67
2019-05-02T20:21:27.238Z,13.63
2019-05-02T20:23:31.585Z,13.23
2019-05-02T20:25:38.953Z,12.30
2019-05-02T20:27:42.271Z,13.40
2019-05-02T20:29:47.450Z,12.80
2019-05-02T20:31:52.716Z,13.03
2019-05-02T20:33:58.135Z,15.07
2019-05-02T20:36:03.707Z,14.73
2019-05-02T20:38:11.136Z,14.53
2019-05-02T20:40:31.999Z,13.97
2019-05-02T20:42:37.600Z,14.13
2019-05-02T20:44:43.145Z,15.20
2019-05-02T20:46:48.648Z,16.10
2019-05-02T20:48:53.851Z,14.63
2019-05-02T20:50:59.713Z,15.33
2019-05-02T20:53:05.139Z,15.07
2019-05-02T20:55:12.282Z,14.80
2019-05-02T20:57:17.579Z,16.13
2019-05-02T20:59:22.838Z,16.67
2019-05-02T21:01:28.366Z,15.87
2019-05-02T21:03:33.559Z,14.70
2019-05-02T21:06:05.082Z,14.80
2019-05-02T21:08:29.467Z,16.90
2019-05-02T21:10:37.778Z,15.77
2019-05-02T21:12:43.109Z,16.23
2019-05-02T21:14:48.310Z,15.40
2019-05-02T21:16:53.480Z,17.33
2019-05-02T21:18:58.672Z,19.37
2019-05-02T21:21:05.115Z,23.03
2019-05-02T21:23:10.547Z,22.80
2019-05-02T21:25:17.051Z,23.27
2019-05-02T21:27:22.562Z,26.37
2019-05-02T21:29:28.047Z,25.40
2019-05-02T21:31:34.019Z,18.73
2019-05-02T21:33:42.527Z,21.23
2019-05-02T21:35:47.375Z,22.47
2019-05-02T21:37:52.636Z,20.63
2019-05-02T21:39:58.144Z,19.07
2019-05-02T21:42:03.331Z,19.03
2019-05-02T21:44:08.421Z,19.23
2019-05-02T21:46:13.656Z,18.07
2019-05-02T21:48:19.159Z,16.17
2019-05-02T21:50:42.731Z,15.93
2019-05-02T21:53:19.654Z,14.83
2019-05-02T21:55:42.830Z,14.90
2019-05-02T21:57:48.128Z,13.47
2019-05-02T21:59:53.789Z,13.80
2019-05-02T22:02:02.261Z,14.50
2019-05-02T22:04:07.096Z,14.03
2019-05-02T22:06:12.425Z,10.80
2019-05-02T22:08:17.593Z,12.53
2019-05-02T22:10:22.792Z,10.50
2019-05-02T22:12:27.937Z,12.00
2019-05-02T22:14:33.225Z,15.77
2019-05-02T22:16:38.411Z,10.67
2019-05-02T22:18:43.536Z,13.43
2019-05-02T22:20:48.999Z,9.83
2019-05-02T22:22:54.072Z,9.43
2019-05-02T22:24:59.084Z,9.30
2019-05-02T22:27:04.254Z,11.80
2019-05-02T22:29:09.723Z,7.43
2019-05-02T22:31:14.995Z,8.47
2019-05-02T22:33:22.178Z,9.03
2019-05-02T22:35:27.751Z,8.47
2019-05-02T22:37:32.959Z,7.10
2019-05-02T22:40:03.635Z,9.37
2019-05-02T22:42:08.885Z,7.67
2019-05-02T22:44:14.194Z,6.80
2019-05-02T22:46:38.576Z,7.83
2019-05-02T22:48:44.081Z,7.87
2019-05-02T22:50:49.567Z,9.20
2019-05-02T22:52:54.620Z,7.30
2019-05-02T22:55:00.020Z,6.87
2019-05-02T22:57:05.825Z,8.00
2019-05-02T22:59:11.021Z,8.00
2019-05-02T23:01:16.187Z,6.83
2019-05-02T23:03:24.198Z,6.17
2019-05-02T23:05:29.108Z,5.00
2019-05-02T23:07:34.568Z,5.53
2019-05-02T23:09:43.433Z,4.90
2019-05-02T23:11:47.549Z,5.10
2019-05-02T23:13:52.998Z,6.00
2019-05-02T23:15:58.390Z,4.20
2019-05-02T23:18:03.564Z,4.60
2019-05-02T23:20:08.750Z,4.67
2019-05-02T23:22:13.926Z,5.53
2019-05-02T23:24:39.407Z,4.70
2019-05-02T23:27:03.715Z,5.17
2019-05-02T23:29:09.851Z,5.17
2019-05-02T23:31:14.956Z,5.03
2019-05-02T23:33:23.418Z,4.80
2019-05-02T23:35:27.827Z,5.03
2019-05-02T23:37:32.923Z,5.20
2019-05-02T23:39:38.630Z,7.53
2019-05-02T23:41:43.803Z,7.20
2019-05-02T23:43:49.326Z,4.63
2019-05-02T23:45:54.804Z,5.17
2019-05-02T23:48:02.022Z,4.97
2019-05-02T23:50:07.542Z,5.53
2019-05-02T23:52:12.944Z,5.07
2019-05-02T23:54:18.692Z,6.00
2019-05-02T23:56:24.135Z,6.53
2019-05-02T23:58:29.165Z,6.70
